Time;durP1;ratioP1;P1;durP2;ratioP2;P2;SDS_P1;SDS_P2;PMS_P1;PMS_P2;Temp;Humidity;BMP_temperature;BMP_pressure;BME280_temperature;BME280_humidity;BME280_pressure;Samples;Min_cycle;Max_cycle;Signal;HPM_P1;HPM_P2
2021/07/03 16:26:10;;;;;;;5.50;5.00;;;24.00;99.90;;;;;;5105468;27;20473;-71
2021/07/03 16:28:36;;;;;;;7.05;5.50;;;24.00;99.90;;;;;;5072655;28;20461;-70
2021/07/03 16:31:02;;;;;;;6.43;5.50;;;24.10;99.90;;;;;;5086037;28;20078;-71
2021/07/03 16:33:27;;;;;;;6.20;5.53;;;24.10;99.90;;;;;;5087635;28;20023;-70
2021/07/03 16:35:53;;;;;;;5.97;5.30;;;24.20;99.90;;;;;;5102926;28;20034;-69
2021/07/03 16:38:19;;;;;;;7.18;5.45;;;24.10;99.90;;;;;;5108376;28;20080;-72
2021/07/03 16:40:46;;;;;;;7.10;5.50;;;24.20;99.90;;;;;;5106272;28;20088;-68
2021/07/03 16:43:12;;;;;;;5.43;4.93;;;24.20;99.90;;;;;;5079309;28;20415;-70
2021/07/03 16:45:38;;;;;;;6.07;4.90;;;24.30;99.90;;;;;;5077914;28;20407;-69
2021/07/03 16:48:04;;;;;;;6.07;5.47;;;24.40;99.90;;;;;;5088198;28;20031;-68
2021/07/03 16:50:30;;;;;;;5.43;4.85;;;24.50;99.90;;;;;;5087542;28;20032;-71
2021/07/03 16:52:55;;;;;;;5.95;5.18;;;24.40;99.90;;;;;;5086881;28;20039;-70
2021/07/03 16:55:21;;;;;;;7.38;5.18;;;24.40;99.90;;;;;;5087683;28;20020;-69
2021/07/03 16:57:47;;;;;;;6.28;5.28;;;24.50;99.90;;;;;;5086290;28;20039;-67
2021/07/03 17:00:13;;;;;;;6.95;5.25;;;24.50;99.90;;;;;;5087204;28;20078;-68
2021/07/03 17:02:39;;;;;;;5.60;5.10;;;24.40;99.90;;;;;;5087979;28;20039;-69
2021/07/03 17:05:05;;;;;;;6.03;5.07;;;24.40;99.90;;;;;;5086976;28;20036;-67
2021/07/03 17:07:30;;;;;;;6.85;5.30;;;24.40;99.90;;;;;;5087391;28;20400;-68
2021/07/03 17:09:56;;;;;;;5.72;5.15;;;24.40;99.90;;;;;;5087295;28;20020;-67
2021/07/03 17:12:21;;;;;;;5.80;5.30;;;24.40;99.90;;;;;;5086044;28;20032;-66
2021/07/03 17:14:47;;;;;;;5.30;4.82;;;24.40;99.90;;;;;;5087446;28;20029;-67
2021/07/03 17:17:13;;;;;;;6.15;5.65;;;24.40;99.90;;;;;;5092447;28;20098;-69
2021/07/03 17:19:38;;;;;;;6.15;5.22;;;24.40;99.90;;;;;;5091041;28;20029;-69
2021/07/03 17:22:04;;;;;;;5.45;4.95;;;24.60;99.90;;;;;;5084596;28;20153;-69
2021/07/03 17:24:30;;;;;;;5.65;5.05;;;24.70;99.90;;;;;;5075826;28;20041;-70
2021/07/03 17:26:55;;;;;;;6.95;5.07;;;24.60;99.90;;;;;;5084983;28;20528;-70
2021/07/03 17:29:21;;;;;;;5.97;5.47;;;24.50;99.90;;;;;;5086337;28;20034;-70
2021/07/03 17:31:46;;;;;;;5.90;5.30;;;24.50;99.90;;;;;;5087060;28;20028;-71
2021/07/03 17:34:12;;;;;;;5.97;5.47;;;24.50;99.90;;;;;;5086093;28;20055;-70
2021/07/03 17:36:38;;;;;;;7.07;5.60;;;24.50;99.90;;;;;;5076678;28;20137;-70
2021/07/03 17:39:05;;;;;;;7.60;5.72;;;24.60;99.90;;;;;;5069911;28;20020;-71
2021/07/03 17:41:30;;;;;;;6.80;5.75;;;24.60;99.90;;;;;;5073055;28;20055;-71
2021/07/03 17:43:56;;;;;;;5.60;5.05;;;24.60;99.90;;;;;;5072418;28;20068;-71
2021/07/03 17:46:22;;;;;;;8.35;5.32;;;24.60;99.90;;;;;;5072646;28;20044;-71
2021/07/03 17:48:47;;;;;;;9.13;5.35;;;24.70;99.90;;;;;;5072821;28;20099;-71
2021/07/03 17:51:13;;;;;;;6.15;5.05;;;24.70;99.90;;;;;;5071916;28;20042;-70
2021/07/03 17:53:39;;;;;;;5.80;5.20;;;24.70;99.90;;;;;;5073381;28;20021;-71
2021/07/03 17:56:05;;;;;;;5.60;5.10;;;24.60;99.90;;;;;;5073111;28;20032;-70
2021/07/03 17:58:30;;;;;;;6.60;5.60;;;24.60;99.90;;;;;;5073073;28;20477;-70
2021/07/03 18:00:56;;;;;;;6.18;5.53;;;24.50;99.90;;;;;;5073116;28;20459;-70
2021/07/03 18:03:22;;;;;;;9.18;5.35;;;24.50;99.90;;;;;;5072916;28;20029;-70
2021/07/03 18:05:48;;;;;;;5.45;5.00;;;24.50;99.90;;;;;;5072177;28;20041;-70
2021/07/03 18:08:14;;;;;;;6.70;5.00;;;24.50;99.90;;;;;;5070490;28;20491;-71
2021/07/03 18:10:41;;;;;;;5.70;5.10;;;24.50;99.90;;;;;;5071589;28;20024;-71
2021/07/03 18:13:07;;;;;;;5.32;4.82;;;24.50;99.90;;;;;;5073434;28;20016;-72
2021/07/03 18:15:33;;;;;;;5.93;5.40;;;24.50;99.90;;;;;;5073444;28;20143;-71
2021/07/03 18:17:59;;;;;;;6.20;5.50;;;24.50;99.90;;;;;;5072439;28;20129;-71
2021/07/03 18:20:24;;;;;;;5.85;5.35;;;24.50;99.90;;;;;;5072455;28;20020;-71
2021/07/03 18:22:50;;;;;;;7.20;5.70;;;24.50;99.90;;;;;;5072508;28;20540;-70
2021/07/03 18:25:16;;;;;;;8.93;6.38;;;24.50;99.90;;;;;;5072301;28;20033;-73
2021/07/03 18:27:42;;;;;;;9.68;6.07;;;24.50;99.90;;;;;;5071092;28;20029;-71
2021/07/03 18:30:09;;;;;;;7.38;5.60;;;24.50;99.90;;;;;;5072959;28;20370;-72
2021/07/03 18:32:35;;;;;;;10.10;5.88;;;24.50;99.90;;;;;;5072859;28;20492;-73
2021/07/03 18:35:01;;;;;;;8.27;6.57;;;24.50;99.90;;;;;;5072256;28;20032;-73
2021/07/03 18:37:26;;;;;;;6.72;6.00;;;24.50;99.90;;;;;;5071806;28;20012;-72
2021/07/03 18:39:52;;;;;;;6.82;5.38;;;24.50;99.90;;;;;;5072353;28;20531;-73
2021/07/03 18:42:18;;;;;;;6.15;5.20;;;24.50;99.90;;;;;;5072373;28;20099;-73
2021/07/03 18:44:43;;;;;;;8.60;5.65;;;24.50;99.90;;;;;;5069848;28;20037;-73
2021/07/03 18:47:09;;;;;;;5.45;4.60;;;24.50;99.90;;;;;;5078466;28;20393;-71
2021/07/03 18:49:35;;;;;;;5.93;5.22;;;24.40;99.90;;;;;;5087892;28;20395;-71
2021/07/03 18:52:00;;;;;;;6.78;4.80;;;24.50;99.90;;;;;;5071790;28;20056;-71
2021/07/03 18:54:28;;;;;;;5.25;4.70;;;24.40;99.90;;;;;;5071976;28;20013;-72
2021/07/03 18:56:54;;;;;;;6.03;5.30;;;24.40;99.90;;;;;;5072266;28;20034;-72
2021/07/03 18:59:20;;;;;;;5.97;4.28;;;24.40;99.90;;;;;;5072143;28;20020;-71
2021/07/03 19:01:45;;;;;;;4.97;4.57;;;24.40;99.90;;;;;;5071736;28;20558;-72
2021/07/03 19:04:11;;;;;;;6.13;4.90;;;24.40;99.90;;;;;;5053748;28;20128;-71
2021/07/03 19:06:37;;;;;;;4.80;4.28;;;24.40;99.90;;;;;;5071029;28;20464;-72
2021/07/03 19:09:03;;;;;;;6.30;4.97;;;24.40;99.90;;;;;;5069680;28;20028;-73
2021/07/03 19:11:29;;;;;;;5.40;4.60;;;24.40;99.90;;;;;;5070914;28;20025;-72
2021/07/03 19:13:55;;;;;;;5.78;4.38;;;24.40;99.90;;;;;;5071348;28;20025;-71
2021/07/03 19:16:21;;;;;;;6.13;5.53;;;24.40;99.90;;;;;;5071566;28;20387;-73
2021/07/03 19:18:46;;;;;;;6.30;5.00;;;24.40;99.90;;;;;;5071585;28;20066;-73
2021/07/03 19:21:12;;;;;;;6.20;5.28;;;24.30;99.90;;;;;;5071494;28;20020;-71
2021/07/03 19:23:38;;;;;;;6.05;5.13;;;24.30;99.90;;;;;;5070318;28;20381;-71
2021/07/03 19:26:05;;;;;;;6.03;5.05;;;24.30;99.90;;;;;;5070684;28;20028;-71
2021/07/03 19:28:32;;;;;;;6.00;5.40;;;24.30;99.90;;;;;;5067779;28;20020;-71
2021/07/03 19:30:57;;;;;;;8.10;5.30;;;24.30;99.90;;;;;;5070194;28;20032;-73
2021/07/03 19:33:24;;;;;;;8.95;6.25;;;24.30;99.90;;;;;;5069865;28;20019;-72
2021/07/03 19:35:51;;;;;;;6.75;5.75;;;24.30;99.90;;;;;;5067293;28;20559;-73
2021/07/03 19:38:17;;;;;;;6.95;6.22;;;24.30;99.90;;;;;;5069736;28;20036;-74
2021/07/03 19:40:42;;;;;;;6.88;5.93;;;24.30;99.90;;;;;;5071227;28;20027;-73
2021/07/03 19:43:08;;;;;;;7.32;5.00;;;24.30;99.90;;;;;;5071293;28;20047;-71
2021/07/03 19:45:34;;;;;;;6.25;5.50;;;24.30;99.90;;;;;;5070868;28;20036;-72
2021/07/03 19:48:00;;;;;;;5.47;4.80;;;24.30;99.90;;;;;;5070788;28;20020;-73
2021/07/03 19:50:26;;;;;;;5.43;4.45;;;24.30;99.90;;;;;;5070882;28;20029;-73
2021/07/03 19:52:52;;;;;;;4.93;4.20;;;24.20;99.90;;;;;;5070969;28;20433;-73
2021/07/03 19:55:19;;;;;;;4.35;3.90;;;24.20;99.90;;;;;;5070928;28;20020;-71
2021/07/03 19:57:46;;;;;;;5.40;4.32;;;24.20;99.90;;;;;;5070922;28;20037;-73
2021/07/03 20:00:17;;;;;;;4.40;3.78;;;24.20;99.90;;;;;;5070256;28;20054;-72
2021/07/03 20:02:43;;;;;;;4.55;4.15;;;24.20;99.90;;;;;;5070879;28;20024;-72
2021/07/03 20:05:10;;;;;;;3.85;3.55;;;24.20;99.90;;;;;;5070651;28;20025;-73
2021/07/03 20:07:37;;;;;;;5.07;3.35;;;24.20;99.90;;;;;;5071143;28;20058;-73
2021/07/03 20:10:04;;;;;;;5.53;3.60;;;24.20;99.90;;;;;;5071881;28;20031;-73
2021/07/03 20:12:30;;;;;;;3.70;3.40;;;24.20;99.90;;;;;;5090816;28;20073;-70
2021/07/03 20:14:55;;;;;;;4.78;3.17;;;24.20;99.90;;;;;;5090959;28;20103;-73
2021/07/03 20:17:21;;;;;;;3.72;3.42;;;24.20;99.90;;;;;;5090735;28;20016;-73
2021/07/03 20:19:47;;;;;;;3.78;3.30;;;24.20;99.90;;;;;;5090780;28;20032;-72
2021/07/03 20:22:12;;;;;;;3.80;3.20;;;24.20;99.90;;;;;;5088998;28;20023;-73
2021/07/03 20:24:38;;;;;;;3.58;3.28;;;24.20;99.90;;;;;;5070494;28;20032;-70
2021/07/03 20:27:03;;;;;;;3.92;3.53;;;24.20;99.90;;;;;;5071221;28;20032;-71
2021/07/03 20:29:30;;;;;;;4.57;3.17;;;24.20;99.90;;;;;;5070408;28;20461;-71
2021/07/03 20:31:56;;;;;;;5.28;2.95;;;24.10;99.90;;;;;;5070390;28;20194;-71
2021/07/03 20:34:23;;;;;;;3.35;3.05;;;24.10;99.90;;;;;;5070650;28;20131;-72
2021/07/03 20:36:49;;;;;;;3.95;3.13;;;24.10;99.90;;;;;;5070969;28;20048;-69
2021/07/03 20:39:16;;;;;;;3.50;2.92;;;24.10;99.90;;;;;;5086182;28;20025;-68
2021/07/03 20:41:43;;;;;;;4.47;3.05;;;24.10;99.90;;;;;;5070778;28;20032;-70
2021/07/03 20:44:10;;;;;;;3.13;2.83;;;24.10;99.90;;;;;;5070424;28;20094;-71
2021/07/03 20:46:37;;;;;;;4.45;2.90;;;24.10;99.90;;;;;;5070832;28;20048;-71
2021/07/03 20:49:04;;;;;;;3.67;2.80;;;24.10;99.90;;;;;;5070630;28;20032;-71
2021/07/03 20:51:30;;;;;;;3.60;2.95;;;24.10;99.90;;;;;;5070269;28;20008;-70
2021/07/03 20:53:56;;;;;;;3.33;2.65;;;24.10;99.90;;;;;;5070227;28;20357;-70
2021/07/03 20:56:22;;;;;;;4.88;3.15;;;24.10;99.90;;;;;;5070581;28;20067;-71
2021/07/03 20:58:48;;;;;;;4.95;3.38;;;24.10;99.90;;;;;;5070366;28;20396;-71
2021/07/03 21:01:14;;;;;;;3.65;3.25;;;24.10;99.90;;;;;;5069654;28;20033;-73
2021/07/03 21:03:39;;;;;;;5.63;3.35;;;24.10;99.90;;;;;;5069889;28;20032;-70
2021/07/03 21:06:05;;;;;;;4.40;3.53;;;24.10;99.90;;;;;;5070315;28;20033;-73
2021/07/03 21:08:31;;;;;;;3.53;3.22;;;24.10;99.90;;;;;;5070164;28;20483;-69
2021/07/03 21:10:56;;;;;;;3.58;3.00;;;24.10;99.90;;;;;;5071020;28;20028;-75
2021/07/03 21:13:22;;;;;;;3.60;3.30;;;24.10;99.90;;;;;;5073914;28;20017;-78
2021/07/03 21:15:48;;;;;;;6.28;3.33;;;24.10;99.90;;;;;;5073915;28;20013;-75
2021/07/03 21:18:13;;;;;;;4.80;3.20;;;24.10;99.90;;;;;;5073765;28;20090;-72
2021/07/03 21:20:39;;;;;;;3.40;3.05;;;24.10;99.90;;;;;;5073836;28;20025;-70
2021/07/03 21:23:05;;;;;;;4.00;3.03;;;24.10;99.90;;;;;;5074219;28;20102;-70
2021/07/03 21:25:30;;;;;;;8.20;3.45;;;24.10;99.90;;;;;;5073447;28;20064;-71
2021/07/03 21:27:56;;;;;;;5.57;3.47;;;24.10;99.90;;;;;;5073807;28;20023;-70
2021/07/03 21:30:25;;;;;;;5.25;3.33;;;24.10;99.90;;;;;;5073191;28;20032;-75
2021/07/03 21:32:51;;;;;;;3.63;3.33;;;24.10;99.90;;;;;;5073575;28;20035;-80
2021/07/03 21:35:17;;;;;;;3.53;3.22;;;24.10;99.90;;;;;;5073447;28;20016;-73
2021/07/03 21:37:44;;;;;;;3.85;3.45;;;24.10;99.90;;;;;;5082420;28;20074;-78
2021/07/03 21:40:14;;;;;;;3.67;3.20;;;24.10;99.90;;;;;;5093688;28;20020;-77
2021/07/03 21:42:40;;;;;;;5.32;3.53;;;24.10;99.90;;;;;;5093791;28;20035;-78
2021/07/03 21:45:06;;;;;;;4.43;3.35;;;24.10;99.90;;;;;;5093835;28;20468;-80
2021/07/03 21:47:32;;;;;;;3.53;3.10;;;24.10;99.90;;;;;;5093370;28;20048;-78
2021/07/03 21:49:58;;;;;;;4.30;3.22;;;24.10;99.90;;;;;;5081314;28;20545;-78
2021/07/03 21:52:23;;;;;;;3.28;2.97;;;24.10;99.90;;;;;;5072677;28;20105;-76
2021/07/03 21:54:49;;;;;;;4.03;3.10;;;24.10;99.90;;;;;;5073294;28;20385;-77
2021/07/03 21:57:15;;;;;;;4.03;3.10;;;24.10;99.90;;;;;;5073705;28;20081;-78
2021/07/03 21:59:40;;;;;;;3.80;3.17;;;24.10;99.90;;;;;;5073794;28;20403;-77
2021/07/03 22:02:07;;;;;;;3.20;2.90;;;24.10;99.90;;;;;;5073837;28;20541;-77
2021/07/03 22:04:33;;;;;;;3.13;2.90;;;24.10;99.90;;;;;;5072980;28;20037;-74
2021/07/03 22:06:58;;;;;;;3.00;2.70;;;24.10;99.90;;;;;;5073619;28;20040;-73
2021/07/03 22:09:27;;;;;;;3.10;2.80;;;24.10;99.90;;;;;;5073467;28;20033;-70
2021/07/03 22:11:56;;;;;;;4.20;3.00;;;24.10;99.90;;;;;;5073616;28;20070;-72
2021/07/03 22:14:23;;;;;;;3.05;2.75;;;24.10;99.90;;;;;;5073293;28;20032;-72
2021/07/03 22:16:49;;;;;;;3.35;3.05;;;24.10;99.90;;;;;;5073280;28;20024;-74
2021/07/03 22:19:15;;;;;;;3.63;3.22;;;24.10;99.90;;;;;;5073223;28;20024;-78
2021/07/03 22:21:41;;;;;;;3.20;2.90;;;24.10;99.90;;;;;;5073337;28;20075;-76
2021/07/03 22:24:07;;;;;;;3.65;3.22;;;24.10;99.90;;;;;;5073441;28;20037;-75
2021/07/03 22:26:33;;;;;;;4.05;3.20;;;24.10;99.90;;;;;;5073535;28;20029;-74
2021/07/03 22:28:59;;;;;;;4.22;3.13;;;24.10;99.90;;;;;;5073160;28;20115;-74
2021/07/03 22:31:26;;;;;;;3.28;2.92;;;24.00;99.90;;;;;;5073014;28;20021;-78
2021/07/03 22:33:52;;;;;;;2.72;2.40;;;24.00;99.90;;;;;;5073224;28;20035;-76
2021/07/03 22:36:18;;;;;;;3.30;2.75;;;24.00;99.90;;;;;;5072846;28;20028;-78
2021/07/03 22:38:46;;;;;;;3.47;2.70;;;24.00;99.90;;;;;;5072912;28;20059;-76
2021/07/03 22:41:12;;;;;;;3.15;2.83;;;24.00;99.90;;;;;;5072783;28;20023;-74
2021/07/03 22:43:38;;;;;;;4.35;2.72;;;24.00;99.90;;;;;;5072862;28;20025;-72
2021/07/03 22:46:04;;;;;;;2.97;2.70;;;24.00;99.90;;;;;;5072012;28;20028;-76
2021/07/03 22:48:30;;;;;;;3.28;2.90;;;23.90;99.90;;;;;;5072538;28;20032;-76
2021/07/03 22:50:56;;;;;;;3.25;2.95;;;23.90;99.90;;;;;;5072818;28;20028;-72
2021/07/03 22:53:22;;;;;;;3.50;2.85;;;23.90;99.90;;;;;;5072478;28;20024;-78
2021/07/03 22:55:48;;;;;;;3.03;2.60;;;23.90;99.90;;;;;;5071196;28;20438;-73
2021/07/03 22:58:13;;;;;;;3.10;2.80;;;23.90;99.90;;;;;;5072614;28;20067;-78
2021/07/03 23:00:41;;;;;;;2.80;2.50;;;23.90;99.90;;;;;;5072811;28;20392;-77
2021/07/03 23:03:07;;;;;;;4.20;2.58;;;23.90;99.90;;;;;;5072987;28;20033;-77
2021/07/03 23:05:34;;;;;;;3.00;2.40;;;23.90;99.90;;;;;;5072708;28;20119;-79
2021/07/03 23:08:02;;;;;;;2.60;2.40;;;23.90;99.90;;;;;;5072561;28;20495;-76
2021/07/03 23:10:33;;;;;;;2.92;2.63;;;23.90;99.90;;;;;;5072026;28;20894;-78
2021/07/03 23:12:59;;;;;;;4.03;2.80;;;23.90;99.90;;;;;;5072450;28;20017;-78
2021/07/03 23:15:25;;;;;;;3.08;2.58;;;23.80;99.90;;;;;;5072119;28;20024;-77
2021/07/03 23:17:52;;;;;;;3.03;2.33;;;23.80;99.90;;;;;;5071868;28;20500;-77
2021/07/03 23:20:24;;;;;;;2.60;2.40;;;23.80;99.90;;;;;;5071449;28;20016;-77
2021/07/03 23:22:53;;;;;;;3.67;2.72;;;23.80;99.90;;;;;;5072251;28;20529;-77
2021/07/03 23:25:20;;;;;;;2.90;2.70;;;23.80;99.90;;;;;;5071728;28;20055;-78
2021/07/03 23:27:47;;;;;;;2.58;2.38;;;23.80;99.90;;;;;;5072208;28;20051;-78
2021/07/03 23:30:16;;;;;;;3.28;2.97;;;23.80;99.90;;;;;;5071851;28;20032;-77
2021/07/03 23:32:42;;;;;;;2.55;2.33;;;23.80;99.90;;;;;;5072104;28;20039;-78
2021/07/03 23:35:08;;;;;;;3.47;2.53;;;23.80;99.90;;;;;;5071409;28;20024;-67
2021/07/03 23:37:34;;;;;;;3.10;2.50;;;23.70;99.90;;;;;;5072258;28;20020;-77
2021/07/03 23:40:02;;;;;;;2.50;2.30;;;23.70;99.90;;;;;;5071972;28;20483;-78
2021/07/03 23:42:29;;;;;;;2.65;2.40;;;23.70;99.90;;;;;;5071805;28;20822;-70
2021/07/03 23:44:55;;;;;;;2.55;2.35;;;23.70;99.90;;;;;;5071594;28;20040;-68
2021/07/03 23:47:21;;;;;;;2.50;2.28;;;23.70;99.90;;;;;;5071236;28;20013;-71
2021/07/03 23:49:47;;;;;;;2.60;2.40;;;23.70;99.90;;;;;;5071708;28;20043;-67
2021/07/03 23:52:12;;;;;;;2.80;2.60;;;23.70;99.90;;;;;;5070114;28;20027;-67
2021/07/03 23:54:38;;;;;;;2.80;2.50;;;23.70;99.90;;;;;;5070256;28;20078;-67
2021/07/03 23:57:04;;;;;;;2.80;2.60;;;23.60;99.90;;;;;;5071678;28;20028;-67
2021/07/03 23:59:31;;;;;;;2.80;2.60;;;23.60;99.90;;;;;;5071312;28;20025;-68
